Latest Coastal Weather Observations for Avalon

IDV60701

Issued at 7:52 pm EST Monday 4 May 2026 (issued every 10 minutes, with the page automatically refreshed every 10 minutes)

About coastal observations | Map of coastal stations | Coastal observations for VIC | Marine services | Other Formats
Station Details ID: 087113 Name: AVALON AIRPORT Lat: -38.03 Lon: 144.48 Height: 10.6 m
Data from the previous 72 hours. | See also: Recent months at Avalon
Date/Time
EST
Wind Sea
Height
m
Swell Vis
km
Cloud Weather Temp
°C
Press
MSL
hPa
Rain since
9am
mm
Dir  Spd
kts
Gust
kts
Height
m
Period
s
Dir
04/07:30pm NW 13 17 - - - - 10 Partly cloudy - 15.6 1010.7 0.0
04/07:00pm NW 15 20 - - - - 10 Mostly clear - 15.9 1010.1 0.0
04/06:30pm NNW 14 20 - - - - 10 Mostly clear - 16.2 1009.7 0.0
04/06:00pm NNW 14 19 - - - - 10 Partly cloudy - 16.2 1009.1 0.0
04/05:30pm NNW 15 21 - - - - 10 Mostly clear - 16.7 1009.0 0.0
04/05:02pm NNW 20 30 - - - - 10 Mostly clear - 17.5 1008.5 0.0
04/05:00pm NNW 21 30 - - - - 10 Mostly clear - 17.5 1008.4 0.0
04/04:46pm NNW 20 30 - - - - 10 Mostly clear - 17.7 1008.2 0.0
04/04:30pm NNW 20 27 - - - - 10 Mostly clear - 18.0 1008.2 0.0
04/04:16pm NNW 20 30 - - - - 10 Mostly clear - 18.4 1008.1 0.0
04/04:00pm NNW 22 30 - - - - 10 Mostly clear - 18.8 1008.0 0.0
04/03:30pm NNW 23 30 - - - - 10 Partly cloudy - 19.0 1008.0 0.0
04/03:00pm NNW 22 36 - - - - 10 Partly cloudy - 19.9 1008.1 0.0
04/02:37pm NNW 22 32 - - - - 10 Partly cloudy - 19.4 1007.7 0.0
04/02:30pm N 21 29 - - - - 10 Mostly clear - 20.1 1007.8 0.0
04/02:00pm NNW 23 32 - - - - 10 Partly cloudy - 19.8 1007.9 0.0
04/01:34pm NNW 22 32 - - - - 10 Mostly clear - 20.0 1007.9 0.0
04/01:30pm NNW 21 29 - - - - 10 Mostly clear - 20.4 1008.1 0.0
04/01:00pm NNW 20 31 - - - - 10 Mostly clear - 18.3 1008.4 0.0
04/12:30pm NNW 26 36 - - - - 10 Mostly clear - 18.2 1008.8 0.0
04/12:21pm NNW 24 36 - - - - 10 Partly cloudy - 18.1 1009.0 0.0
04/12:00pm NNW 21 29 - - - - 10 Cloudy - 19.3 1009.2 0.0
04/11:30am N 22 27 - - - - 10 Mostly clear - 18.9 1009.5 0.0
04/11:04am NNW 21 31 - - - - 10 - - 18.1 1009.6 0.0
04/11:00am NNW 20 27 - - - - 10 - - 18.2 1009.7 0.0
04/10:30am NNW 21 29 - - - - 10 - - 17.4 1009.7 0.0
04/10:25am NNW 19 29 - - - - 10 - - 17.4 1009.7 0.0
04/10:00am N 18 22 - - - - 10 - - 17.3 1009.9 0.0
04/09:30am N 16 21 - - - - 10 Mostly clear - 15.9 1010.1 0.0
04/09:00am N 11 17 - - - - 10 - - 14.7 1010.4 1.4
04/08:30am N 6 9 - - - - 10 - - 13.0 1010.5 1.4
04/08:00am NNE 7 9 - - - - 10 - - 11.2 1010.6 1.4
04/07:30am NNE 6 7 - - - - 10 Mostly clear - 9.9 1010.6 1.4
04/07:00am NNE 9 11 - - - - 10 - - 10.6 1010.2 1.4
04/06:30am NNE 11 14 - - - - 10 - - 11.0 1010.1 1.4
04/06:00am NNE 8 12 - - - - 10 Mostly clear - 10.9 1010.3 1.4
04/05:30am NNE 10 13 - - - - 10 Mostly clear - 11.2 1010.2 1.4
04/05:00am NNE 5 7 - - - - 10 - - 10.5 1010.6 1.4
04/04:30am NNE 10 12 - - - - 10 - - 11.4 1010.6 1.4
04/04:00am N 7 10 - - - - 10 - - 10.3 1010.7 1.4
04/03:30am N 9 12 - - - - 10 - - 11.4 1010.9 1.4
04/03:00am N 9 10 - - - - 10 - - 11.3 1011.1 1.4
04/02:30am NNE 10 13 - - - - 10 - - 12.0 1011.2 1.4
04/02:00am N 9 11 - - - - 10 - - 11.3 1011.3 1.4
04/01:30am NNE 9 11 - - - - 10 - - 11.8 1011.3 1.4
04/01:00am N 9 12 - - - - 10 - - 11.8 1011.2 1.4
04/12:30am N 11 13 - - - - 10 - - 11.8 1011.3 1.4
04/12:00am N 10 15 - - - - 10 - - 11.8 1011.5 1.4
 
Date/Time
EST
Wind Sea
Height
m
Swell Vis
km
Cloud Weather Temp
°C
Press
MSL
hPa
Rain since
9am
mm
Dir  Spd
kts
Gust
kts
Height
m
Period
s
Dir
03/11:30pm N 11 16 - - - - 10 - - 12.5 1011.5 1.4
03/11:00pm N 10 12 - - - - 10 - - 12.6 1011.7 1.4
03/10:30pm NNE 8 11 - - - - 10 - - 12.6 1012.1 1.4
03/10:00pm NNE 9 12 - - - - 10 - - 13.4 1012.2 1.4
03/09:30pm NNE 9 10 - - - - 10 - - 13.5 1012.4 1.4
03/09:00pm NNE 10 13 - - - - 10 Mostly cloudy - 13.8 1012.3 1.4
03/08:30pm NNE 9 12 - - - - 10 - - 13.8 1012.5 1.4
03/08:00pm N 9 11 - - - - 10 - - 14.2 1011.9 1.4
03/07:30pm N 10 12 - - - - 10 - - 14.7 1011.9 1.4
03/07:00pm N 8 10 - - - - 10 - - 14.9 1011.6 1.4
03/06:30pm N 9 11 - - - - 10 - - 14.8 1010.8 1.4
03/06:00pm N 8 10 - - - - 10 - - 15.7 1010.6 1.4
03/05:30pm N 10 14 - - - - 10 - - 16.7 1010.3 1.4
03/05:00pm NNW 10 13 - - - - 10 - - 17.5 1010.0 1.4
03/04:30pm NW 10 15 - - - - 10 - - 18.8 1009.9 1.4
03/04:00pm NW 15 20 - - - - 10 Partly cloudy - 19.4 1010.2 1.4
03/03:30pm NW 12 15 - - - - 10 Partly cloudy - 18.7 1010.1 1.4
03/03:00pm NW 16 21 - - - - 10 - - 20.6 1010.0 1.4
03/02:30pm NW 11 19 - - - - 10 Partly cloudy - 20.6 1009.7 1.4
03/02:00pm NW 9 11 - - - - 10 Partly cloudy - 18.5 1010.1 1.4
03/01:30pm NW 10 15 - - - - 10 Cloudy - 18.0 1010.2 1.4
03/01:00pm NW 14 19 - - - - 10 Cloudy - 17.8 1010.3 1.4
03/12:30pm WNW 7 11 - - - - 10 Mostly clear - 17.0 1010.5 1.4
03/12:00pm NNW 18 27 - - - - 10 Cloudy Rain 17.3 1010.4 1.4
03/11:57am N 17 27 - - - - 10 Mostly clear - 17.8 1010.2 1.4
03/11:56am N 16 27 - - - - 10 Mostly clear - 18.5 1010.1 1.4
03/11:30am N 13 18 - - - - 10 Partly cloudy - 18.7 1009.8 1.4
03/11:00am NNE 13 18 - - - - 10 Partly cloudy - 18.7 1010.0 1.4
03/10:30am NNE 15 21 - - - - 10 Partly cloudy - 18.2 1009.7 1.4
03/10:00am NNE 17 22 - - - - 10 Mostly clear - 17.8 1009.7 1.4
03/09:30am NNE 15 22 - - - - 10 Mostly clear - 17.4 1010.2 1.2
03/09:00am NNE 20 29 - - - - 10 Mostly cloudy Thunderstorm 18.5 1010.7 0.2
03/08:30am NNE 16 23 - - - - 10 - - 18.2 1010.1 0.2
03/08:00am NNE 17 23 - - - - 10 Partly cloudy - 17.9 1009.8 0.2
03/07:30am NNE 15 22 - - - - 10 - - 17.7 1010.1 0.2
03/07:00am NNE 8 15 - - - - 10 Partly cloudy - 17.8 1010.9 0.2
03/06:30am NNE 18 25 - - - - 10 Mostly clear - 18.3 1010.5 0.2
03/06:05am NNE 15 25 - - - - 10 Partly cloudy - 18.9 1010.7 0.0
03/06:00am NNE 15 23 - - - - 10 Mostly cloudy Showers 18.8 1010.9 0.0
03/05:30am N 13 17 - - - - 10 Cloudy - 19.1 1011.2 0.0
03/05:00am N 12 17 - - - - 10 Partly cloudy - 19.7 1011.1 0.0
03/04:30am N 16 22 - - - - 10 Cloudy - 20.2 1011.0 0.0
03/04:00am NNE 9 13 - - - - 10 Cloudy - 19.8 1010.8 0.0
03/03:30am NNE 5 7 - - - - 10 Cloudy - 18.7 1011.4 0.0
03/03:00am N 7 9 - - - - 10 Cloudy - 18.7 1012.1 0.0
03/02:30am N 9 11 - - - - 10 Mostly clear - 19.1 1012.0 0.0
03/02:00am NNE 9 11 - - - - 10 Cloudy - 19.4 1012.3 0.0
03/01:30am N 9 12 - - - - 10 Cloudy - 19.3 1012.6 0.0
03/01:00am N 12 16 - - - - 10 Partly cloudy - 19.9 1012.6 0.0
03/12:30am N 11 14 - - - - 10 Partly cloudy - 19.5 1013.0 0.0
03/12:00am N 13 19 - - - - 10 Cloudy - 19.9 1013.3 0.0
 
Date/Time
EST
Wind Sea
Height
m
Swell Vis
km
Cloud Weather Temp
°C
Press
MSL
hPa
Rain since
9am
mm
Dir  Spd
kts
Gust
kts
Height
m
Period
s
Dir
02/11:30pm NNE 13 19 - - - - 10 Cloudy - 20.4 1013.3 0.0
02/11:00pm N 11 14 - - - - 10 Mostly clear - 20.0 1013.8 0.0
02/10:30pm N 10 14 - - - - 10 Cloudy - 20.4 1014.0 0.0
02/10:00pm NNW 7 10 - - - - 10 Mostly clear - 20.4 1014.2 0.0
02/09:30pm N 11 17 - - - - 10 Mostly clear - 20.8 1014.0 0.0
02/09:00pm N 6 7 - - - - 10 Cloudy - 20.4 1014.1 0.0
02/08:30pm N 7 8 - - - - 10 Partly cloudy - 20.5 1014.0 0.0
02/08:00pm N 7 9 - - - - 10 Partly cloudy - 21.1 1014.1 0.0
02/07:30pm N 11 14 - - - - 10 Mostly clear - 22.2 1014.3 0.0
02/07:00pm N 12 15 - - - - 10 Cloudy - 22.7 1014.2 0.0
02/06:30pm N 14 19 - - - - 10 Cloudy - 23.2 1013.9 0.0
02/06:00pm NNE 10 15 - - - - 10 Mostly cloudy - 23.1 1013.9 0.0
02/05:30pm NNE 14 18 - - - - 10 Mostly clear - 23.4 1013.8 0.0
02/05:00pm NNE 14 21 - - - - 10 Mostly clear - 23.9 1013.7 0.0
02/04:30pm NNE 16 23 - - - - 10 - - 23.7 1013.7 0.0
02/04:00pm NNE 17 22 - - - - 10 - - 24.1 1013.7 0.0
02/03:30pm NNE 15 21 - - - - 10 - - 24.9 1013.7 0.0
02/03:07pm NNE 15 25 - - - - 10 - - 25.1 1013.5 0.0
02/03:00pm NNE 13 18 - - - - 10 - - 24.8 1013.5 0.0
02/02:30pm NNE 15 22 - - - - 10 - - 24.3 1013.8 0.0
02/02:14pm NE 16 26 - - - - 10 - - 24.7 1013.8 0.0
02/02:00pm NNE 15 20 - - - - 10 - - 24.6 1014.1 0.0
02/01:30pm NE 14 18 - - - - 10 - - 23.6 1014.8 0.0
02/01:00pm NNE 13 18 - - - - 10 - - 22.8 1015.5 0.0
02/12:30pm NNE 15 20 - - - - 10 - - 21.9 1016.0 0.0
02/12:00pm NNE 15 20 - - - - 10 Partly cloudy - 21.5 1016.8 0.0
02/11:30am NNE 17 23 - - - - 10 - - 21.3 1017.2 0.0
02/11:00am NNE 15 22 - - - - 10 Mostly clear - 21.1 1017.6 0.0
02/10:30am NNE 16 21 - - - - 10 Cloudy - 20.9 1017.8 0.0
02/10:00am NNE 13 18 - - - - 10 Cloudy - 20.5 1018.2 0.0
02/09:30am NNE 14 18 - - - - 10 Cloudy - 19.9 1018.4 0.0
02/09:00am NNE 15 19 - - - - 10 Mostly cloudy - 19.8 1018.5 0.0
02/08:30am NNE 14 19 - - - - 10 Cloudy - 19.4 1018.4 0.0
02/08:00am NNE 12 16 - - - - 10 Cloudy - 19.0 1018.3 0.0
02/07:30am NNE 11 15 - - - - 10 Mostly clear - 18.6 1018.2 0.0
02/07:00am NNE 12 15 - - - - 10 Cloudy - 18.4 1018.0 0.0
02/06:30am NNE 10 13 - - - - 10 Partly cloudy - 17.1 1017.9 0.0
02/06:00am NNE 8 10 - - - - 10 Mostly cloudy - 16.5 1017.9 0.0
02/05:30am NNE 9 11 - - - - 10 Mostly clear - 16.9 1017.9 0.0
02/05:00am NNE 10 13 - - - - 10 - - 17.3 1018.0 0.0
02/04:30am NNE 9 12 - - - - 10 - - 16.3 1018.3 0.0
02/04:00am NE 8 10 - - - - 10 - - 16.6 1018.4 0.0
02/03:30am NNE 7 9 - - - - 10 - - 16.8 1018.6 0.0
02/03:00am NE 8 9 - - - - 10 - - 16.5 1018.7 0.0
02/02:30am NNE 9 12 - - - - 10 - - 18.5 1018.9 0.0
02/02:00am NNE 9 11 - - - - 10 - - 17.5 1019.3 0.0
02/01:30am NNE 8 10 - - - - 10 - - 15.6 1019.5 0.0
02/01:00am NE 5 7 - - - - 10 - - 15.3 1019.8 0.0
02/12:30am NNE 6 6 - - - - 10 - - 15.8 1020.0 0.0
02/12:00am NE 6 7 - - - - 10 Partly cloudy - 16.5 1020.3 0.0
 
Date/Time
EST
Wind Sea
Height
m
Swell Vis
km
Cloud Weather Temp
°C
Press
MSL
hPa
Rain since
9am
mm
Dir  Spd
kts
Gust
kts
Height
m
Period
s
Dir
01/11:30pm NNE 7 8 - - - - 10 - - 17.5 1020.7 0.0
01/11:00pm NNE 8 10 - - - - 10 Partly cloudy - 18.6 1020.9 0.0
01/10:30pm N 8 9 - - - - 10 - - 18.4 1021.3 0.0
01/10:00pm N 7 9 - - - - 10 Mostly clear - 18.0 1021.4 0.0
01/09:30pm N 7 9 - - - - 10 Mostly clear - 18.2 1021.5 0.0
01/09:00pm NNE 8 10 - - - - 10 - - 19.1 1021.4 0.0
01/08:30pm N 8 10 - - - - 10 - - 19.2 1021.3 0.0
01/08:00pm NNE 7 9 - - - - 10 - - 20.1 1021.1 0.0

Other formats

Comma delimited format used in spreadsheet applications
http://www.bom.gov.au/fwo/IDV60701/IDV60701.94854.axf

JavaScript Object Notation format (JSON) in row-major order
http://www.bom.gov.au/fwo/IDV60701/IDV60701.94854.json

Data quality

Most of these data are generated automatically and are frequently updated. Quality checks on data are not normally performed. It is possible for incorrect values to appear. Refer to information at About Latest Weather Observations and please check the disclaimer before using these data.